createdAt,value
2019-03-20T00:04:31.098Z,4.22
2019-03-20T00:09:39.500Z,4.11
2019-03-20T00:14:48.237Z,3.70
2019-03-20T00:19:56.513Z,3.88
2019-03-20T00:25:05.748Z,3.56
2019-03-20T00:30:14.103Z,3.43
2019-03-20T00:35:22.773Z,4.00
2019-03-20T00:40:30.998Z,3.88
2019-03-20T00:45:39.428Z,3.33
2019-03-20T00:50:48.221Z,3.48
2019-03-20T00:55:56.622Z,3.24
2019-03-20T01:01:04.898Z,3.21
2019-03-20T01:06:13.252Z,3.48
2019-03-20T01:11:21.505Z,3.17
2019-03-20T01:16:30.064Z,3.60
2019-03-20T01:21:38.354Z,3.51
2019-03-20T01:26:46.782Z,4.19
2019-03-20T01:31:54.933Z,4.08
2019-03-20T01:37:03.587Z,3.67
2019-03-20T01:42:11.870Z,3.30
2019-03-20T01:47:20.300Z,3.49
2019-03-20T01:52:28.502Z,3.77
2019-03-20T01:57:37.018Z,3.26
2019-03-20T02:02:45.181Z,3.34
2019-03-20T02:07:53.723Z,3.73
2019-03-20T02:13:01.981Z,3.28
2019-03-20T02:18:10.606Z,3.56
2019-03-20T02:23:18.771Z,3.48
2019-03-20T02:28:27.218Z,3.44
2019-03-20T02:33:35.571Z,3.33
2019-03-20T02:38:44.159Z,3.53
2019-03-20T02:43:52.439Z,3.35
2019-03-20T02:49:00.879Z,3.55
2019-03-20T02:54:09.163Z,3.18
2019-03-20T02:59:17.873Z,3.57
2019-03-20T03:04:26.157Z,3.48
2019-03-20T03:09:34.421Z,3.57
2019-03-20T03:14:42.822Z,3.64
2019-03-20T03:19:51.365Z,3.78
2019-03-20T03:24:59.696Z,4.84
2019-03-20T03:30:08.370Z,5.11
2019-03-20T03:35:19.098Z,5.54
2019-03-20T03:40:24.306Z,5.85
2019-03-20T03:45:32.774Z,6.09
2019-03-20T03:50:41.364Z,6.70
2019-03-20T03:55:49.835Z,6.62
2019-03-20T04:00:58.268Z,6.98
2019-03-20T04:06:06.732Z,7.40
2019-03-20T04:11:15.225Z,8.02
2019-03-20T04:16:23.438Z,8.13
2019-03-20T04:21:31.882Z,8.82
2019-03-20T04:26:40.154Z,9.81
2019-03-20T04:31:48.482Z,9.93
2019-03-20T04:36:56.785Z,10.66
2019-03-20T04:42:05.065Z,10.67
2019-03-20T04:47:13.557Z,11.63
2019-03-20T04:52:22.111Z,10.84
2019-03-20T04:57:30.394Z,11.55
2019-03-20T05:02:38.777Z,12.06
2019-03-20T05:07:47.132Z,12.71
2019-03-20T05:12:55.765Z,13.84
2019-03-20T05:18:03.893Z,13.99
2019-03-20T05:23:12.449Z,13.92
2019-03-20T05:28:20.729Z,14.79
2019-03-20T05:33:29.258Z,15.11
2019-03-20T05:38:37.513Z,15.53
2019-03-20T05:43:46.146Z,15.01
2019-03-20T05:48:54.444Z,16.39
2019-03-20T05:54:03.055Z,16.52
2019-03-20T05:59:11.225Z,17.13
2019-03-20T06:04:19.688Z,17.20
2019-03-20T06:09:28.052Z,17.22
2019-03-20T06:14:36.621Z,16.89
2019-03-20T06:19:45.203Z,17.48
2019-03-20T06:24:53.766Z,17.08
2019-03-20T06:30:02.017Z,16.87
2019-03-20T06:35:10.789Z,16.63
2019-03-20T06:40:19.140Z,16.82
2019-03-20T06:45:27.746Z,17.10
2019-03-20T06:50:36.036Z,16.95
2019-03-20T06:55:45.061Z,16.95
2019-03-20T07:00:53.318Z,17.20
2019-03-20T07:06:02.074Z,17.24
2019-03-20T07:11:10.882Z,17.63
2019-03-20T07:16:19.457Z,18.43
2019-03-20T07:21:27.867Z,18.82
2019-03-20T07:26:36.805Z,19.78
2019-03-20T07:31:44.998Z,19.60
2019-03-20T07:36:53.644Z,20.91
2019-03-20T07:42:01.936Z,20.68
2019-03-20T07:47:10.776Z,21.23
2019-03-20T07:52:19.193Z,22.73
2019-03-20T07:57:27.691Z,23.13
2019-03-20T08:02:36.154Z,22.38
2019-03-20T08:07:44.829Z,22.42
2019-03-20T08:12:53.235Z,22.82
2019-03-20T08:18:01.962Z,23.41
2019-03-20T08:23:10.463Z,23.35
2019-03-20T08:28:18.962Z,23.10
2019-03-20T08:33:27.402Z,23.14
2019-03-20T08:38:36.536Z,23.36
2019-03-20T08:43:45.742Z,23.29
2019-03-20T08:48:53.289Z,22.79
2019-03-20T08:54:01.736Z,22.50
2019-03-20T08:59:10.238Z,23.29
2019-03-20T09:04:18.711Z,22.88
2019-03-20T09:09:27.200Z,22.34
2019-03-20T09:14:35.546Z,21.97
2019-03-20T09:19:44.284Z,21.55
2019-03-20T09:24:52.573Z,21.16
2019-03-20T09:30:01.269Z,21.34
2019-03-20T09:35:09.633Z,20.66
2019-03-20T09:40:18.165Z,21.40
2019-03-20T09:45:27.008Z,21.32
2019-03-20T09:50:35.667Z,20.03
2019-03-20T09:55:44.097Z,20.02
2019-03-20T10:00:52.815Z,19.83
2019-03-20T10:06:01.395Z,20.77
2019-03-20T10:11:09.903Z,22.34
2019-03-20T10:16:18.286Z,22.39
2019-03-20T10:21:27.045Z,20.77
2019-03-20T10:26:35.408Z,21.09
2019-03-20T10:31:44.001Z,20.68
2019-03-20T10:36:52.243Z,21.12
2019-03-20T10:42:00.706Z,20.94
2019-03-20T10:47:11.597Z,21.21
2019-03-20T10:52:17.331Z,21.76
2019-03-20T10:57:25.845Z,21.66
2019-03-20T11:02:34.323Z,22.45
2019-03-20T11:07:42.560Z,22.01
2019-03-20T11:12:51.105Z,22.71
2019-03-20T11:17:59.590Z,22.48
2019-03-20T11:23:08.533Z,22.34
2019-03-20T11:28:16.986Z,22.51
2019-03-20T11:33:25.486Z,23.82
2019-03-20T11:38:33.824Z,22.90
2019-03-20T11:43:42.451Z,23.15
2019-03-20T11:48:50.823Z,23.21
2019-03-20T11:53:57.886Z,22.50
2019-03-20T11:59:06.354Z,23.80
2019-03-20T12:04:14.829Z,23.82
2019-03-20T12:09:23.106Z,23.79
2019-03-20T12:14:31.654Z,23.26
2019-03-20T12:19:44.938Z,24.19
2019-03-20T12:24:48.034Z,24.72
2019-03-20T12:29:56.591Z,25.03
2019-03-20T12:35:05.401Z,24.43
2019-03-20T12:40:14.001Z,23.91
2019-03-20T12:45:22.749Z,24.72
2019-03-20T12:50:30.997Z,24.94
2019-03-20T12:55:39.566Z,24.67
2019-03-20T13:05:55.375Z,25.12
2019-03-20T13:11:03.837Z,26.10
2019-03-20T13:16:12.260Z,28.29
2019-03-20T13:21:20.555Z,27.71
2019-03-20T13:26:28.952Z,28.31
2019-03-20T13:31:37.267Z,28.46
2019-03-20T13:36:45.896Z,28.85
2019-03-20T13:41:54.480Z,28.66
2019-03-20T13:47:03.171Z,29.57
2019-03-20T13:52:11.710Z,29.42
2019-03-20T13:57:20.273Z,29.72
2019-03-20T14:02:28.495Z,30.72
2019-03-20T14:07:37.091Z,30.15
2019-03-20T14:12:45.465Z,30.08
2019-03-20T14:17:54.954Z,31.61
2019-03-20T14:23:03.142Z,31.58
2019-03-20T14:28:11.499Z,33.00
2019-03-20T14:33:19.794Z,33.11
2019-03-20T14:38:28.185Z,32.38
2019-03-20T14:43:36.453Z,34.45
2019-03-20T14:48:44.789Z,33.41
2019-03-20T14:53:53.204Z,33.78
2019-03-20T14:59:01.456Z,33.02
2019-03-20T15:04:09.649Z,33.18
2019-03-20T15:09:18.306Z,33.43
2019-03-20T15:14:25.551Z,33.72
2019-03-20T15:19:34.279Z,32.94
2019-03-20T15:24:44.910Z,32.95
2019-03-20T15:29:43.529Z,33.12
2019-03-20T15:34:51.743Z,33.94
2019-03-20T15:40:00.331Z,32.85
2019-03-20T15:45:15.550Z,32.58
2019-03-20T15:50:26.861Z,32.58
2019-03-20T15:55:15.106Z,33.28
2019-03-20T16:00:30.410Z,31.34
2019-03-20T16:05:35.621Z,32.25
2019-03-20T16:10:34.954Z,32.16
2019-03-20T16:15:52.150Z,31.59
2019-03-20T16:20:50.582Z,32.83
2019-03-20T16:25:58.825Z,32.10
2019-03-20T16:31:07.289Z,33.14
2019-03-20T16:36:15.898Z,33.13
2019-03-20T16:41:24.187Z,33.96
2019-03-20T16:46:32.639Z,34.21
2019-03-20T16:51:41.171Z,34.10
2019-03-20T16:56:49.458Z,34.85
2019-03-20T17:01:57.978Z,37.30
2019-03-20T17:07:09.433Z,35.39
2019-03-20T17:12:07.609Z,35.41
2019-03-20T17:17:15.991Z,35.53
2019-03-20T17:22:24.313Z,35.64
2019-03-20T17:27:32.663Z,36.56
2019-03-20T17:32:40.971Z,37.86
2019-03-20T17:37:49.264Z,39.50
2019-03-20T17:42:57.775Z,38.68
2019-03-20T17:48:06.133Z,38.84
2019-03-20T17:53:14.418Z,40.81
2019-03-20T17:58:22.629Z,43.44
2019-03-20T18:03:30.953Z,41.76
2019-03-20T18:08:39.410Z,40.62
2019-03-20T18:13:47.872Z,42.65
2019-03-20T18:18:56.838Z,42.72
2019-03-20T18:24:05.070Z,45.91
2019-03-20T18:29:13.364Z,42.53
2019-03-20T18:34:21.784Z,40.83
2019-03-20T18:39:30.355Z,41.30
2019-03-20T18:44:39.067Z,41.86
2019-03-20T18:49:47.355Z,44.89
2019-03-20T18:54:55.842Z,42.01
2019-03-20T19:00:04.234Z,43.21
2019-03-20T19:05:12.633Z,43.01
2019-03-20T19:10:20.909Z,43.17
2019-03-20T19:15:29.842Z,44.59
2019-03-20T19:20:38.128Z,45.57
2019-03-20T19:25:46.373Z,43.19
2019-03-20T19:30:54.575Z,48.22
2019-03-20T19:36:02.901Z,50.92
2019-03-20T19:41:11.230Z,45.95
2019-03-20T19:46:19.489Z,44.63
2019-03-20T19:51:27.655Z,44.82
2019-03-20T19:56:35.998Z,43.61
2019-03-20T20:01:44.615Z,44.76
2019-03-20T20:06:52.931Z,45.27
2019-03-20T20:12:01.310Z,44.06
2019-03-20T20:17:09.701Z,44.81
2019-03-20T20:22:18.075Z,45.85
2019-03-20T20:27:26.359Z,45.66
2019-03-20T20:32:34.781Z,46.99
2019-03-20T20:37:43.870Z,45.67
2019-03-20T20:42:52.448Z,45.19
2019-03-20T20:48:00.797Z,46.73
2019-03-20T20:53:09.316Z,46.67
2019-03-20T20:58:17.658Z,46.95
2019-03-20T21:03:25.909Z,46.13
2019-03-20T21:08:34.261Z,46.70
2019-03-20T21:13:42.554Z,45.61
2019-03-20T21:18:50.930Z,42.38
2019-03-20T21:23:59.186Z,43.83
2019-03-20T21:29:07.447Z,45.11
2019-03-20T21:34:16.130Z,45.31
2019-03-20T21:39:25.307Z,45.27
2019-03-20T21:44:33.806Z,45.26
2019-03-20T21:49:42.247Z,44.18
2019-03-20T21:54:50.473Z,43.34
2019-03-20T21:59:59.385Z,43.97
2019-03-20T22:05:07.709Z,44.26
2019-03-20T22:10:16.557Z,44.25
2019-03-20T22:15:25.190Z,44.57
2019-03-20T22:20:33.700Z,43.56
2019-03-20T22:25:42.905Z,43.44
2019-03-20T22:30:51.435Z,44.68
2019-03-20T22:35:59.715Z,43.54
2019-03-20T22:41:08.413Z,43.51
2019-03-20T22:46:17.784Z,44.88
2019-03-20T22:51:26.257Z,44.26
2019-03-20T22:56:34.532Z,44.53
2019-03-20T23:01:43.172Z,45.26
2019-03-20T23:06:51.421Z,46.28
2019-03-20T23:12:00.203Z,47.43
2019-03-20T23:17:08.504Z,50.85
2019-03-20T23:22:17.206Z,50.70
2019-03-20T23:27:25.561Z,52.92
2019-03-20T23:32:34.852Z,52.12
2019-03-20T23:37:43.122Z,54.65
2019-03-20T23:42:51.457Z,55.94
2019-03-20T23:47:59.672Z,56.63
2019-03-20T23:53:08.210Z,57.19
2019-03-20T23:58:16.347Z,56.15
